createdAt,value
2017-09-21T00:00:05.429Z,16.27
2017-09-21T00:02:31.792Z,16.77
2017-09-21T00:04:58.174Z,18.05
2017-09-21T00:07:25.322Z,17.40
2017-09-21T00:09:52.792Z,16.10
2017-09-21T00:12:19.166Z,18.30
2017-09-21T00:14:45.533Z,16.87
2017-09-21T00:17:12.684Z,17.02
2017-09-21T00:19:39.810Z,33.55
2017-09-21T00:22:06.902Z,19.00
2017-09-21T00:24:33.309Z,17.30
2017-09-21T00:27:00.542Z,14.20
2017-09-21T00:29:26.877Z,16.33
2017-09-21T00:31:54.322Z,21.55
2017-09-21T00:34:21.437Z,17.37
2017-09-21T00:36:47.811Z,16.77
2017-09-21T00:39:14.935Z,14.87
2017-09-21T00:41:41.297Z,20.45
2017-09-21T00:44:08.411Z,22.80
2017-09-21T00:46:34.808Z,16.30
2017-09-21T00:49:01.195Z,32.10
2017-09-21T00:51:28.330Z,15.88
2017-09-21T00:53:54.995Z,22.37
2017-09-21T00:56:21.406Z,17.42
2017-09-21T00:58:48.528Z,18.60
2017-09-21T01:01:14.946Z,17.48
2017-09-21T01:03:41.330Z,19.23
2017-09-21T01:06:07.736Z,20.45
2017-09-21T01:08:34.135Z,16.52
2017-09-21T01:11:00.815Z,18.62
2017-09-21T01:13:27.943Z,18.55
2017-09-21T01:15:54.304Z,19.00
2017-09-21T01:18:21.403Z,17.80
2017-09-21T01:20:47.810Z,19.02
2017-09-21T01:23:14.233Z,16.27
2017-09-21T01:25:40.606Z,21.50
2017-09-21T01:28:07.058Z,18.92
2017-09-21T01:30:33.492Z,16.25
2017-09-21T01:33:00.630Z,20.40
2017-09-21T01:35:27.085Z,19.25
2017-09-21T01:37:54.218Z,21.05
2017-09-21T01:40:21.398Z,21.37
2017-09-21T01:42:47.755Z,16.90
2017-09-21T01:45:14.470Z,15.15
2017-09-21T01:47:40.912Z,21.08
2017-09-21T01:50:07.375Z,18.70
2017-09-21T01:52:33.889Z,20.33
2017-09-21T01:55:00.274Z,20.25
2017-09-21T01:57:30.745Z,17.70
2017-09-21T01:59:57.134Z,17.62
2017-09-21T02:02:24.313Z,16.75
2017-09-21T02:04:50.757Z,18.02
2017-09-21T02:07:18.252Z,15.77
2017-09-21T02:09:45.436Z,17.77
2017-09-21T02:12:11.823Z,17.65
2017-09-21T02:14:38.179Z,20.98
2017-09-21T02:17:04.573Z,16.15
2017-09-21T02:19:31.096Z,15.45
2017-09-21T02:21:57.464Z,19.05
2017-09-21T02:24:24.595Z,19.95
2017-09-21T02:26:51.708Z,19.23
2017-09-21T02:29:18.472Z,16.77
2017-09-21T02:31:44.846Z,19.90
2017-09-21T02:34:11.228Z,17.92
2017-09-21T02:36:37.615Z,23.30
2017-09-21T02:39:03.979Z,18.00
2017-09-21T02:41:30.387Z,15.70
2017-09-21T02:43:56.764Z,17.05
2017-09-21T02:46:23.166Z,23.10
2017-09-21T02:48:49.568Z,36.90
2017-09-21T02:51:15.939Z,20.50
2017-09-21T02:53:42.302Z,18.95
2017-09-21T02:56:09.402Z,18.57
2017-09-21T02:58:35.809Z,15.30
2017-09-21T03:01:02.194Z,17.97
2017-09-21T03:03:28.571Z,15.40
2017-09-21T03:05:54.952Z,16.83
2017-09-21T03:08:22.430Z,14.73
2017-09-21T03:10:49.575Z,14.57
2017-09-21T03:13:16.640Z,15.27
2017-09-21T03:15:43.056Z,15.93
2017-09-21T03:18:10.236Z,14.80
2017-09-21T03:20:36.608Z,13.33
2017-09-21T03:23:02.950Z,14.47
2017-09-21T03:25:29.351Z,13.57
2017-09-21T03:27:55.679Z,16.67
2017-09-21T03:30:22.363Z,14.83
2017-09-21T03:32:48.714Z,15.00
2017-09-21T03:35:15.104Z,14.67
2017-09-21T03:37:42.240Z,19.93
2017-09-21T03:40:08.619Z,18.10
2017-09-21T03:42:35.019Z,16.27
2017-09-21T03:45:01.431Z,19.73
2017-09-21T03:47:27.775Z,20.80
2017-09-21T03:49:54.989Z,18.50
2017-09-21T03:52:21.641Z,22.23
2017-09-21T03:54:47.966Z,22.33
2017-09-21T03:57:14.355Z,16.90
2017-09-21T03:59:41.482Z,20.70
2017-09-21T04:02:07.830Z,20.65
2017-09-21T04:04:34.200Z,21.27
2017-09-21T04:07:00.578Z,20.30
2017-09-21T04:09:27.014Z,20.75
2017-09-21T04:11:53.460Z,20.43
2017-09-21T04:14:20.127Z,19.25
2017-09-21T04:16:46.505Z,19.33
2017-09-21T04:19:12.881Z,18.47
2017-09-21T04:21:39.277Z,18.73
2017-09-21T04:24:05.722Z,20.48
2017-09-21T04:26:32.082Z,18.95
2017-09-21T04:28:58.485Z,18.05
2017-09-21T04:31:24.883Z,19.70
2017-09-21T04:33:51.222Z,19.75
2017-09-21T04:36:17.617Z,21.10
2017-09-21T04:38:43.967Z,21.08
2017-09-21T04:41:10.662Z,23.80
2017-09-21T04:43:36.994Z,22.50
2017-09-21T04:46:03.357Z,16.17
2017-09-21T04:48:30.436Z,20.07
2017-09-21T04:50:56.785Z,17.67
2017-09-21T04:53:23.132Z,18.17
2017-09-21T04:55:49.507Z,17.83
2017-09-21T04:58:15.895Z,18.60
2017-09-21T05:00:42.344Z,21.10
2017-09-21T05:03:09.893Z,19.60
2017-09-21T05:05:36.294Z,20.37
2017-09-21T05:08:02.698Z,18.57
2017-09-21T05:10:29.085Z,15.83
2017-09-21T05:12:55.425Z,17.53
2017-09-21T05:15:21.790Z,17.23
2017-09-21T05:17:48.143Z,16.13
2017-09-21T05:20:14.489Z,16.67
2017-09-21T05:22:40.969Z,17.13
2017-09-21T05:25:07.323Z,18.23
2017-09-21T05:27:33.690Z,23.33
2017-09-21T05:30:00.345Z,14.90
2017-09-21T05:32:26.681Z,25.77
2017-09-21T05:34:53.900Z,19.40
2017-09-21T05:37:20.257Z,15.43
2017-09-21T05:39:47.349Z,18.97
2017-09-21T05:42:13.712Z,19.97
2017-09-21T05:44:40.021Z,22.77
2017-09-21T05:47:06.406Z,20.83
2017-09-21T05:49:32.748Z,21.87
2017-09-21T05:51:59.453Z,19.70
2017-09-21T05:54:25.812Z,18.30
2017-09-21T05:56:52.138Z,19.60
2017-09-21T05:59:18.492Z,18.97
2017-09-21T06:01:44.842Z,22.67
2017-09-21T06:04:11.947Z,19.80
2017-09-21T06:06:38.261Z,23.57
2017-09-21T06:09:04.911Z,25.10
2017-09-21T06:11:31.285Z,20.53
2017-09-21T06:16:31.418Z,21.73
2017-09-21T06:18:57.800Z,18.53
2017-09-21T06:21:24.192Z,15.67
2017-09-21T06:23:51.350Z,23.53
2017-09-21T06:26:17.758Z,18.07
2017-09-21T06:28:44.117Z,18.80
2017-09-21T06:31:11.219Z,17.80
2017-09-21T06:33:37.589Z,22.10
2017-09-21T06:36:05.037Z,29.00
2017-09-21T06:38:31.380Z,16.77
2017-09-21T06:40:58.465Z,16.63
2017-09-21T06:43:24.780Z,16.83
2017-09-21T06:45:51.129Z,15.37
2017-09-21T06:48:17.518Z,18.07
2017-09-21T06:50:44.615Z,16.17
2017-09-21T06:53:11.289Z,15.50
2017-09-21T06:55:37.639Z,13.80
2017-09-21T06:58:03.930Z,12.10
2017-09-21T07:00:30.314Z,15.80
2017-09-21T07:02:56.682Z,13.57
2017-09-21T07:05:23.089Z,13.30
2017-09-21T07:07:49.433Z,14.10
2017-09-21T07:10:16.198Z,14.93
2017-09-21T07:12:42.549Z,15.67
2017-09-21T07:15:08.961Z,13.77
2017-09-21T07:17:35.364Z,14.30
2017-09-21T07:20:01.755Z,13.83
2017-09-21T07:22:29.727Z,12.23
2017-09-21T07:24:56.146Z,17.03
2017-09-21T07:27:22.553Z,12.40
2017-09-21T07:29:49.645Z,14.43
2017-09-21T07:32:16.053Z,12.73
2017-09-21T07:34:42.426Z,10.63
2017-09-21T07:37:09.106Z,18.00
2017-09-21T07:39:36.294Z,15.50
2017-09-21T07:42:02.706Z,14.97
2017-09-21T07:44:29.086Z,17.00
2017-09-21T07:46:55.442Z,12.63
2017-09-21T07:49:22.576Z,11.97
2017-09-21T07:51:49.744Z,14.13
2017-09-21T07:54:16.173Z,20.17
2017-09-21T07:56:43.278Z,15.17
2017-09-21T07:59:09.663Z,14.43
2017-09-21T08:01:36.042Z,15.90
2017-09-21T08:04:02.453Z,16.23
2017-09-21T08:06:28.838Z,11.23
2017-09-21T08:08:55.916Z,16.87
2017-09-21T08:11:22.565Z,15.90
2017-09-21T08:13:48.940Z,14.03
2017-09-21T08:16:16.071Z,16.73
2017-09-21T08:18:42.438Z,16.83
2017-09-21T08:21:08.791Z,19.03
2017-09-21T08:23:35.302Z,17.13
2017-09-21T08:26:01.699Z,16.80
2017-09-21T08:28:28.457Z,19.30
2017-09-21T08:30:55.634Z,18.10
2017-09-21T08:33:22.054Z,19.07
2017-09-21T08:35:48.480Z,20.10
2017-09-21T08:38:14.894Z,19.17
2017-09-21T08:40:41.347Z,18.97
2017-09-21T08:43:07.787Z,18.70
2017-09-21T08:45:34.174Z,24.80
2017-09-21T08:48:00.621Z,21.57
2017-09-21T08:50:27.779Z,25.57
2017-09-21T08:52:54.212Z,25.30
2017-09-21T08:55:20.909Z,24.17
2017-09-21T08:57:47.310Z,23.10
2017-09-21T09:00:13.683Z,28.20
2017-09-21T09:02:40.073Z,20.57
2017-09-21T09:05:06.440Z,24.03
2017-09-21T09:07:32.852Z,27.13
2017-09-21T09:09:59.221Z,27.27
2017-09-21T09:12:25.616Z,28.57
2017-09-21T09:14:51.987Z,32.50
2017-09-21T09:17:19.422Z,28.03
2017-09-21T09:19:45.744Z,27.13
2017-09-21T09:22:12.109Z,35.20
2017-09-21T09:24:38.549Z,31.40
2017-09-21T09:27:04.907Z,27.57
2017-09-21T09:29:31.270Z,30.63
2017-09-21T09:31:57.631Z,29.30
2017-09-21T09:34:24.740Z,32.97
2017-09-21T09:36:51.124Z,26.77
2017-09-21T09:39:17.832Z,28.27
2017-09-21T09:41:44.929Z,30.50
2017-09-21T09:44:11.339Z,27.33
2017-09-21T09:46:37.691Z,26.57
2017-09-21T09:49:04.053Z,31.73
2017-09-21T09:51:31.183Z,24.53
2017-09-21T09:53:57.573Z,24.50
2017-09-21T09:56:23.982Z,28.17
2017-09-21T09:58:51.109Z,28.53
2017-09-21T10:01:17.865Z,25.87
2017-09-21T10:03:44.963Z,28.10
2017-09-21T10:06:11.341Z,22.40
2017-09-21T10:08:37.672Z,34.57
2017-09-21T10:11:04.786Z,25.73
2017-09-21T10:13:31.177Z,29.60
2017-09-21T10:15:57.534Z,26.13
2017-09-21T10:18:23.894Z,20.67
2017-09-21T10:20:50.281Z,21.53
2017-09-21T10:23:16.719Z,25.30
2017-09-21T10:25:43.082Z,18.57
2017-09-21T10:28:09.722Z,17.03
2017-09-21T10:30:36.092Z,25.10
2017-09-21T10:33:02.424Z,21.73
2017-09-21T10:35:28.778Z,23.60
2017-09-21T10:37:55.175Z,24.73
2017-09-21T10:40:21.543Z,26.40
2017-09-21T10:42:47.880Z,26.23
2017-09-21T10:45:14.253Z,17.67
2017-09-21T10:47:40.611Z,17.63
2017-09-21T10:50:07.272Z,16.53
2017-09-21T10:52:33.642Z,17.70
2017-09-21T10:55:00.746Z,15.67
2017-09-21T10:57:27.169Z,15.57
2017-09-21T10:59:53.599Z,23.00
2017-09-21T11:02:19.904Z,16.70
2017-09-21T11:04:46.255Z,15.27
2017-09-21T11:07:13.032Z,17.57
2017-09-21T11:09:40.149Z,15.80
2017-09-21T11:12:06.542Z,17.03
2017-09-21T11:14:32.899Z,15.37
2017-09-21T11:16:59.257Z,19.97
2017-09-21T11:19:25.697Z,17.80
2017-09-21T11:21:52.867Z,15.67
2017-09-21T11:24:19.339Z,15.10
2017-09-21T11:26:45.757Z,13.40
2017-09-21T11:29:12.443Z,11.57
2017-09-21T11:31:38.791Z,16.83
2017-09-21T11:34:05.914Z,15.07
2017-09-21T11:36:33.062Z,15.70
2017-09-21T11:38:59.444Z,20.93
2017-09-21T11:41:25.835Z,15.13
2017-09-21T11:43:52.243Z,14.53
2017-09-21T11:46:18.641Z,13.70
2017-09-21T11:48:45.020Z,15.60
2017-09-21T11:51:11.411Z,18.10
2017-09-21T11:53:37.818Z,13.93
2017-09-21T11:56:04.526Z,17.53
2017-09-21T11:58:31.662Z,22.60
2017-09-21T12:00:58.077Z,14.30
2017-09-21T12:03:24.461Z,18.17
2017-09-21T12:05:50.825Z,23.97
2017-09-21T12:08:17.229Z,15.13
2017-09-21T12:10:43.573Z,17.40
2017-09-21T12:13:09.951Z,20.97
2017-09-21T12:15:36.318Z,18.23
2017-09-21T12:18:03.021Z,17.77
2017-09-21T12:20:30.127Z,19.20
2017-09-21T12:22:56.654Z,16.30
2017-09-21T12:25:23.013Z,15.10
2017-09-21T12:27:49.398Z,12.87
2017-09-21T12:30:15.803Z,13.20
2017-09-21T12:32:42.871Z,12.00
2017-09-21T12:35:09.550Z,11.30
2017-09-21T12:37:35.893Z,12.50
2017-09-21T12:40:02.264Z,14.30
2017-09-21T12:42:28.645Z,17.47
2017-09-21T12:44:55.039Z,13.47
2017-09-21T12:47:21.468Z,14.17
2017-09-21T12:49:47.838Z,13.13
2017-09-21T12:52:14.218Z,10.87
2017-09-21T12:54:40.666Z,11.77
2017-09-21T12:57:07.076Z,11.17
2017-09-21T12:59:33.463Z,13.80
2017-09-21T13:01:59.813Z,13.27
2017-09-21T13:04:26.896Z,16.50
2017-09-21T13:06:53.262Z,12.97
2017-09-21T13:09:20.008Z,14.83
2017-09-21T13:11:46.383Z,15.13
2017-09-21T13:14:12.764Z,10.07
2017-09-21T13:16:39.261Z,14.50
2017-09-21T13:19:05.616Z,10.63
2017-09-21T13:21:32.020Z,12.30
2017-09-21T13:23:58.432Z,15.00
2017-09-21T13:26:24.820Z,12.93
2017-09-21T13:28:51.292Z,12.93
2017-09-21T13:31:17.987Z,14.27
2017-09-21T13:33:44.372Z,15.40
2017-09-21T13:36:10.743Z,13.13
2017-09-21T13:38:37.141Z,11.07
2017-09-21T13:41:03.523Z,12.90
2017-09-21T13:43:30.627Z,12.23
2017-09-21T13:45:56.976Z,13.47
2017-09-21T13:48:23.354Z,12.00
2017-09-21T13:50:49.727Z,14.00
2017-09-21T13:53:16.411Z,13.90
2017-09-21T13:55:42.771Z,12.67
2017-09-21T13:58:09.156Z,16.93
2017-09-21T14:00:36.303Z,12.67
2017-09-21T14:03:02.691Z,10.57
2017-09-21T14:05:29.103Z,12.00
2017-09-21T14:07:55.500Z,14.83
2017-09-21T14:10:22.176Z,13.20
2017-09-21T14:12:48.581Z,10.33
2017-09-21T14:15:15.748Z,11.87
2017-09-21T14:17:42.143Z,12.87
2017-09-21T14:20:09.612Z,11.80
2017-09-21T14:22:36.097Z,13.23
2017-09-21T14:25:02.503Z,10.43
2017-09-21T14:27:28.883Z,12.63
2017-09-21T14:29:55.365Z,12.33
2017-09-21T14:32:21.716Z,12.17
2017-09-21T14:34:48.229Z,9.33
2017-09-21T14:37:14.628Z,9.70
2017-09-21T14:39:41.761Z,10.30
2017-09-21T14:42:08.485Z,11.43
2017-09-21T14:44:34.903Z,11.83
2017-09-21T14:47:01.284Z,12.00
2017-09-21T14:49:27.725Z,9.97
2017-09-21T14:51:54.071Z,11.00
2017-09-21T14:54:20.529Z,9.97
2017-09-21T14:56:46.917Z,12.97
2017-09-21T14:59:13.350Z,13.83
2017-09-21T15:01:39.742Z,13.50
2017-09-21T15:04:07.191Z,13.03
2017-09-21T15:06:33.565Z,11.77
2017-09-21T15:09:00.128Z,17.07
2017-09-21T15:11:27.344Z,15.53
2017-09-21T15:13:53.772Z,13.37
2017-09-21T15:16:20.141Z,14.10
2017-09-21T15:18:46.535Z,13.77
2017-09-21T15:21:12.929Z,16.60
2017-09-21T15:23:40.071Z,17.60
2017-09-21T15:26:06.823Z,17.13
2017-09-21T15:28:33.982Z,14.30
2017-09-21T15:31:01.177Z,13.47
2017-09-21T15:33:27.553Z,15.20
2017-09-21T15:35:54.680Z,13.87
2017-09-21T15:38:21.073Z,14.50
2017-09-21T15:40:47.418Z,11.40
2017-09-21T15:43:13.796Z,14.33
2017-09-21T15:45:40.970Z,16.27
2017-09-21T15:48:07.335Z,15.27
2017-09-21T15:50:33.725Z,18.13
2017-09-21T15:53:00.151Z,12.63
2017-09-21T15:55:27.214Z,16.67
2017-09-21T15:57:53.724Z,18.43
2017-09-21T16:00:20.419Z,15.70
2017-09-21T16:02:47.258Z,17.73
2017-09-21T16:05:13.787Z,16.20
2017-09-21T16:07:40.144Z,16.03
2017-09-21T16:10:07.536Z,13.90
2017-09-21T16:12:34.979Z,11.63
2017-09-21T16:15:01.511Z,15.43
2017-09-21T16:17:28.300Z,16.03
2017-09-21T16:19:54.802Z,16.57
2017-09-21T16:22:21.175Z,12.43
2017-09-21T16:24:47.603Z,13.43
2017-09-21T16:27:13.962Z,19.30
2017-09-21T16:29:41.096Z,16.80
2017-09-21T16:32:07.632Z,15.17
2017-09-21T16:34:34.242Z,19.43
2017-09-21T16:37:00.638Z,17.60
2017-09-21T16:39:28.131Z,17.60
2017-09-21T16:41:54.499Z,14.90
2017-09-21T16:44:21.675Z,13.77
2017-09-21T16:46:48.048Z,15.07
2017-09-21T16:49:14.403Z,19.30
2017-09-21T16:51:41.534Z,22.20
2017-09-21T16:54:08.724Z,15.33
2017-09-21T16:56:35.170Z,18.83
2017-09-21T16:59:01.707Z,16.23
2017-09-21T17:01:28.391Z,15.20
2017-09-21T17:03:54.812Z,16.53
2017-09-21T17:06:22.064Z,19.07
2017-09-21T17:08:48.694Z,15.30
2017-09-21T17:11:15.063Z,15.23
2017-09-21T17:13:42.387Z,19.03
2017-09-21T17:16:08.928Z,17.70
2017-09-21T17:18:38.733Z,22.50
2017-09-21T17:21:07.026Z,21.00
2017-09-21T17:23:34.843Z,15.33
2017-09-21T17:26:01.407Z,16.70
2017-09-21T17:28:28.573Z,14.30
2017-09-21T17:30:55.026Z,14.67
2017-09-21T17:33:21.391Z,17.47
2017-09-21T17:35:49.029Z,17.40
2017-09-21T17:38:16.270Z,21.83
2017-09-21T17:40:44.174Z,19.73
2017-09-21T17:43:10.760Z,19.07
2017-09-21T17:45:38.009Z,18.07
2017-09-21T17:48:05.248Z,21.37
2017-09-21T17:50:31.707Z,21.90
2017-09-21T17:53:01.337Z,24.63
2017-09-21T17:55:27.741Z,16.93
2017-09-21T17:57:54.449Z,18.90
2017-09-21T18:00:20.933Z,16.60
2017-09-21T18:02:47.348Z,21.43
2017-09-21T18:05:13.799Z,15.93
2017-09-21T18:07:40.226Z,20.40
2017-09-21T18:10:06.666Z,16.63
2017-09-21T18:12:33.082Z,19.93
2017-09-21T18:14:59.511Z,18.90
2017-09-21T18:17:25.974Z,19.03
2017-09-21T18:19:53.158Z,17.20
2017-09-21T18:22:19.585Z,19.60
2017-09-21T18:24:46.066Z,19.73
2017-09-21T18:27:12.485Z,20.17
2017-09-21T18:29:38.953Z,22.57
2017-09-21T18:32:06.211Z,20.67
2017-09-21T18:34:33.407Z,19.00
2017-09-21T18:36:59.922Z,19.63
2017-09-21T18:39:26.322Z,21.67
2017-09-21T18:41:53.570Z,19.03
2017-09-21T18:44:20.842Z,20.90
2017-09-21T18:46:47.329Z,19.47
2017-09-21T18:49:13.820Z,23.70
2017-09-21T18:51:40.672Z,18.83
2017-09-21T18:54:07.153Z,19.87
2017-09-21T18:56:34.333Z,19.93
2017-09-21T18:59:00.779Z,24.48
2017-09-21T19:01:27.261Z,25.13
2017-09-21T19:03:54.522Z,18.93
2017-09-21T19:06:20.941Z,19.03
2017-09-21T19:08:47.514Z,17.17
2017-09-21T19:11:14.176Z,18.60
2017-09-21T19:13:41.890Z,23.03
2017-09-21T19:16:09.946Z,16.83
2017-09-21T19:18:36.464Z,20.80
2017-09-21T19:21:05.061Z,30.20
2017-09-21T19:23:32.341Z,20.40
2017-09-21T19:25:58.820Z,17.97
2017-09-21T19:28:26.046Z,18.13
2017-09-21T19:30:52.475Z,20.80
2017-09-21T19:33:18.912Z,19.40
2017-09-21T19:35:45.718Z,26.92
2017-09-21T19:38:12.104Z,21.73
2017-09-21T19:40:38.601Z,19.50
2017-09-21T19:43:05.035Z,21.65
2017-09-21T19:45:31.496Z,21.87
2017-09-21T19:47:57.956Z,22.08
2017-09-21T19:50:25.194Z,23.30
2017-09-21T19:52:51.652Z,25.30
2017-09-21T19:55:18.097Z,21.27
2017-09-21T19:57:44.836Z,27.42
2017-09-21T20:00:11.288Z,22.75
2017-09-21T20:02:37.745Z,21.48
2017-09-21T20:05:04.148Z,24.63
2017-09-21T20:07:30.563Z,22.48
2017-09-21T20:09:56.994Z,28.08
2017-09-21T20:12:23.472Z,21.45
2017-09-21T20:14:50.173Z,21.08
2017-09-21T20:17:16.582Z,20.45
2017-09-21T20:19:43.731Z,19.02
2017-09-21T20:22:10.143Z,22.10
2017-09-21T20:24:36.531Z,23.42
2017-09-21T20:27:02.950Z,22.30
2017-09-21T20:29:29.376Z,20.20
2017-09-21T20:31:55.785Z,22.40
2017-09-21T20:34:22.192Z,21.33
2017-09-21T20:36:48.978Z,19.25
2017-09-21T20:39:15.336Z,21.58
2017-09-21T20:41:41.718Z,25.83
2017-09-21T20:44:08.130Z,31.40
2017-09-21T20:46:34.518Z,25.62
2017-09-21T20:49:00.902Z,22.40
2017-09-21T20:51:28.036Z,23.90
2017-09-21T20:53:55.162Z,32.35
2017-09-21T20:56:21.586Z,26.70
2017-09-21T20:58:48.262Z,25.35
2017-09-21T21:01:15.392Z,30.62
2017-09-21T21:03:41.739Z,28.20
2017-09-21T21:06:10.086Z,26.90
2017-09-21T21:08:36.442Z,30.08
2017-09-21T21:11:02.819Z,27.13
2017-09-21T21:13:30.902Z,37.60
2017-09-21T21:15:57.316Z,32.88
2017-09-21T21:18:23.695Z,28.60
2017-09-21T21:20:51.298Z,31.27
2017-09-21T21:23:17.695Z,30.62
2017-09-21T21:25:45.659Z,30.67
2017-09-21T21:28:12.153Z,30.77
2017-09-21T21:30:40.137Z,26.00
2017-09-21T21:33:07.517Z,35.30
2017-09-21T21:35:34.033Z,26.48
2017-09-21T21:38:00.414Z,27.73
2017-09-21T21:40:27.769Z,23.98
2017-09-21T21:42:54.146Z,28.70
2017-09-21T21:45:20.556Z,22.58
2017-09-21T21:47:47.198Z,22.00
2017-09-21T21:50:14.617Z,25.80
2017-09-21T21:52:41.167Z,26.33
2017-09-21T21:55:07.522Z,25.17
2017-09-21T21:57:33.956Z,27.10
2017-09-21T22:00:00.334Z,24.63
2017-09-21T22:02:26.762Z,25.55
2017-09-21T22:04:53.135Z,24.52
2017-09-21T22:07:19.906Z,28.02
2017-09-21T22:09:46.961Z,27.00
2017-09-21T22:12:13.353Z,31.60
2017-09-21T22:14:39.703Z,31.83
2017-09-21T22:17:07.171Z,34.15
2017-09-21T22:19:33.534Z,32.33
2017-09-21T22:22:00.420Z,35.67
2017-09-21T22:24:26.843Z,36.33
2017-09-21T22:26:53.206Z,37.83
2017-09-21T22:29:20.298Z,27.33
2017-09-21T22:31:47.573Z,27.10
2017-09-21T22:34:14.000Z,31.48
2017-09-21T22:36:40.356Z,27.35
2017-09-21T22:39:07.814Z,28.45
2017-09-21T22:41:34.890Z,25.73
2017-09-21T22:44:01.256Z,27.27
2017-09-21T22:46:28.796Z,24.65
2017-09-21T22:48:55.153Z,29.08
2017-09-21T22:51:21.607Z,23.75
2017-09-21T22:53:49.048Z,23.38
2017-09-21T22:56:15.422Z,30.60
2017-09-21T22:58:41.809Z,36.97
2017-09-21T23:01:09.688Z,25.50
2017-09-21T23:03:36.815Z,26.65
2017-09-21T23:06:03.193Z,26.00
2017-09-21T23:08:29.619Z,26.98
2017-09-21T23:10:55.984Z,24.73
2017-09-21T23:13:22.398Z,24.58
2017-09-21T23:15:49.135Z,19.27
2017-09-21T23:18:15.586Z,24.08
2017-09-21T23:20:41.986Z,22.73
2017-09-21T23:23:08.631Z,25.98
2017-09-21T23:25:35.919Z,27.00
2017-09-21T23:28:02.563Z,22.70
2017-09-21T23:30:28.866Z,28.00
2017-09-21T23:32:55.261Z,21.83
2017-09-21T23:35:21.629Z,25.70
2017-09-21T23:37:49.309Z,25.92
2017-09-21T23:40:15.858Z,29.67
2017-09-21T23:42:42.214Z,25.20
2017-09-21T23:45:08.609Z,30.62
2017-09-21T23:47:35.006Z,26.67
2017-09-21T23:50:01.355Z,31.23
2017-09-21T23:52:29.444Z,27.42
2017-09-21T23:54:57.038Z,23.98
2017-09-21T23:57:23.427Z,29.85
2017-09-21T23:59:51.021Z,28.15
